Nearby METAR Reports

 

KMQS - Coatesville, Pennsylvania, USA
Distance from station: ENE 6mi, 10km
Updated: Sat, 22-Sep-2018 2:55pm EDT
Clear
Clear
 Wind from N
Wind: N 9 mph , 15 km/h
Temperature: 64°F , 18°C
Dew Point: 52°F , 11°C
Humidity: 64%
Barometer: 30.19 inHg , 1022.4 hPa
Clouds: Clear
Visibility: 10 miles , 16 km
2018/09/22 18:55 KMQS 221855Z AUTO 36008KT 10SM CLR 18/11 A3019 RMK AO2
KLNS - Lancaster, Pennsylvania, USA
Distance from station: NW 21mi, 33km
Updated: Sat, 22-Sep-2018 2:53pm EDT
Clear
Clear
 Wind from NNE
Wind: NNE 12 mph , 19 km/h
Temperature: 64°F , 18°C
Dew Point: 54°F , 12°C
Humidity: 68%
Barometer: 30.19 inHg , 1022.4 hPa
Clouds: Clear
Visibility: 10 miles , 16 km
2018/09/22 18:53 KLNS 221853Z 02010KT 10SM CLR 18/12 A3019 RMK AO2 SLP220 T01830122
 
KILG - Wilmington, Delaware, USA
Distance from station: SE 28mi, 45km
Updated: Sat, 22-Sep-2018 2:51pm EDT
Clear
Clear
 Wind from N
Wind: N 13 mph , 20 km/h
Temperature: 73°F , 23°C
Dew Point: 55°F , 13°C
Humidity: 53%
Barometer: 30.15 inHg , 1021 hPa
Clouds: Clear
Visibility: 10 miles , 16 km
2018/09/22 18:51 KILG 221851Z 36011KT 10SM CLR 23/13 A3015 RMK AO2 SLP209 T02330128
KRDG - Reading, Pennsylvania, USA
Distance from station: N 29mi, 47km
Updated: Sat, 22-Sep-2018 2:54pm EDT
Mostly cloudy
Mostly cloudy
 Wind from N
Wind: N 9 mph , 15 km/h
Temperature: 64°F , 18°C
Dew Point: 52°F , 11°C
Humidity: 64%
Barometer: 30.18 inHg , 1022 hPa
Clouds: Mostly cloudy
Visibility: 10 miles , 16 km
Cloud details: Mostly cloudy 10000 ft
2018/09/22 18:54 KRDG 221854Z 36008KT 10SM BKN100 18/11 A3018 RMK AO2 SLP222 T01830111
 
KPTW - Pottstown, Pennsylvania, USA
Distance from station: NE 30mi, 48km
Updated: Sat, 22-Sep-2018 2:54pm EDT
Clear
Clear
 Wind from NW
Wind: NW 8 mph , 13 km/h
Temperature: 64°F , 18°C
Dew Point: 52°F , 11°C
Humidity: 64%
Barometer: 30.19 inHg , 1022.4 hPa
Clouds: Clear
Visibility: 10 miles , 16 km
2018/09/22 18:54 KPTW 221854Z AUTO 32007KT 10SM CLR 18/11 A3019 RMK AO2 SLP221 T01780106